sensor_id;sensor_type;location;lat;lon;timestamp;pressure;altitude;pressure_sealevel;temperature;humidity
37202;BME280;37799;52.390;6.136;2023-05-10T00:02:22;100800.31;;;12.79;100.00
37202;BME280;37799;52.390;6.136;2023-05-10T00:04:48;100800.44;;;12.76;100.00
37202;BME280;37799;52.390;6.136;2023-05-10T00:07:13;100805.59;;;12.78;100.00
37202;BME280;37799;52.390;6.136;2023-05-10T00:09:38;100794.28;;;12.79;100.00
37202;BME280;37799;52.390;6.136;2023-05-10T00:12:04;100799.53;;;12.77;100.00
37202;BME280;37799;52.390;6.136;2023-05-10T00:14:29;100796.09;;;12.77;100.00
37202;BME280;37799;52.390;6.136;2023-05-10T00:16:55;100794.38;;;12.76;100.00
37202;BME280;37799;52.390;6.136;2023-05-10T00:19:20;100794.38;;;12.76;100.00
37202;BME280;37799;52.390;6.136;2023-05-10T00:21:46;100790.38;;;12.67;100.00
37202;BME280;37799;52.390;6.136;2023-05-10T00:24:11;100793.81;;;12.67;100.00
37202;BME280;37799;52.390;6.136;2023-05-10T00:26:37;100786.03;;;12.67;100.00
37202;BME280;37799;52.390;6.136;2023-05-10T00:29:02;100791.09;;;12.70;100.00
37202;BME280;37799;52.390;6.136;2023-05-10T00:31:27;100781.78;;;12.65;100.00
37202;BME280;37799;52.390;6.136;2023-05-10T00:33:52;100781.78;;;12.65;100.00
37202;BME280;37799;52.390;6.136;2023-05-10T00:36:18;100786.97;;;12.65;100.00
37202;BME280;37799;52.390;6.136;2023-05-10T00:38:43;100777.44;;;12.65;100.00
37202;BME280;37799;52.390;6.136;2023-05-10T00:41:08;100786.88;;;12.68;100.00
37202;BME280;37799;52.390;6.136;2023-05-10T00:43:34;100776.59;;;12.65;100.00
37202;BME280;37799;52.390;6.136;2023-05-10T00:45:59;100781.66;;;12.68;100.00
37202;BME280;37799;52.390;6.136;2023-05-10T00:48:25;100782.47;;;12.70;100.00
37202;BME280;37799;52.390;6.136;2023-05-10T00:50:50;100779.75;;;12.73;100.00
37202;BME280;37799;52.390;6.136;2023-05-10T00:53:16;100774.06;;;12.63;100.00
37202;BME280;37799;52.390;6.136;2023-05-10T00:55:42;100775.78;;;12.63;100.00
37202;BME280;37799;52.390;6.136;2023-05-10T00:58:07;100770.63;;;12.61;100.00
37202;BME280;37799;52.390;6.136;2023-05-10T01:00:33;100775.78;;;12.63;100.00
37202;BME280;37799;52.390;6.136;2023-05-10T01:02:59;100776.72;;;12.60;100.00
37202;BME280;37799;52.390;6.136;2023-05-10T01:05:24;100778.34;;;12.64;100.00
37202;BME280;37799;52.390;6.136;2023-05-10T01:07:50;100777.16;;;12.73;100.00
37202;BME280;37799;52.390;6.136;2023-05-10T01:10:16;100777.38;;;12.67;100.00
37202;BME280;37799;52.390;6.136;2023-05-10T01:12:44;100780.66;;;12.72;100.00
37202;BME280;37799;52.390;6.136;2023-05-10T01:15:10;100771.41;;;12.65;100.00
37202;BME280;37799;52.390;6.136;2023-05-10T01:17:38;100777.44;;;12.65;100.00
37202;BME280;37799;52.390;6.136;2023-05-10T01:20:05;100778.16;;;12.69;100.00
37202;BME280;37799;52.390;6.136;2023-05-10T01:22:53;100781.66;;;12.68;100.00
37202;BME280;37799;52.390;6.136;2023-05-10T01:34:16;100776.16;;;12.52;100.00
37202;BME280;37799;52.390;6.136;2023-05-10T01:36:45;100771.91;;;12.50;100.00
37202;BME280;37799;52.390;6.136;2023-05-10T01:44:38;100772.72;;;12.52;100.00
37202;BME280;37799;52.390;6.136;2023-05-10T01:47:14;100780.53;;;12.52;100.00
37202;BME280;37799;52.390;6.136;2023-05-10T01:49:49;100771.81;;;12.53;100.00
37202;BME280;37799;52.390;6.136;2023-05-10T01:52:18;100778.59;;;12.57;100.00
37202;BME280;37799;52.390;6.136;2023-05-10T01:54:49;100783.91;;;12.54;100.00
37202;BME280;37799;52.390;6.136;2023-05-10T01:57:19;100782.16;;;12.54;100.00
37202;BME280;37799;52.390;6.136;2023-05-10T01:59:48;100781.38;;;12.52;100.00
37202;BME280;37799;52.390;6.136;2023-05-10T02:02:15;100776.22;;;12.51;100.00
37202;BME280;37799;52.390;6.136;2023-05-10T02:04:42;100774.47;;;12.51;100.00
37202;BME280;37799;52.390;6.136;2023-05-10T02:07:09;100774.63;;;12.47;100.00
37202;BME280;37799;52.390;6.136;2023-05-10T02:09:36;100770.00;;;12.55;100.00
37202;BME280;37799;52.390;6.136;2023-05-10T02:12:03;100780.53;;;12.52;100.00
37202;BME280;37799;52.390;6.136;2023-05-10T02:14:32;100785.59;;;12.55;100.00
37202;BME280;37799;52.390;6.136;2023-05-10T02:16:59;100785.59;;;12.55;100.00
37202;BME280;37799;52.390;6.136;2023-05-10T02:19:28;100789.66;;;12.62;100.00
37202;BME280;37799;52.390;6.136;2023-05-10T02:21:55;100791.53;;;12.58;100.00
37202;BME280;37799;52.390;6.136;2023-05-10T02:24:21;100791.59;;;12.57;100.00
37202;BME280;37799;52.390;6.136;2023-05-10T02:26:51;100794.28;;;12.54;100.00
37202;BME280;37799;52.390;6.136;2023-05-10T02:29:19;100794.53;;;12.46;100.00
37202;BME280;37799;52.390;6.136;2023-05-10T02:31:45;100796.09;;;12.52;100.00
37202;BME280;37799;52.390;6.136;2023-05-10T02:34:11;100796.66;;;12.60;100.00
37202;BME280;37799;52.390;6.136;2023-05-10T02:36:39;100800.22;;;12.57;100.00
37202;BME280;37799;52.390;6.136;2023-05-10T02:39:06;100793.41;;;12.55;100.00
37202;BME280;37799;52.390;6.136;2023-05-10T02:41:35;100802.03;;;12.55;100.00
37202;BME280;37799;52.390;6.136;2023-05-10T02:44:02;100796.84;;;12.55;100.00
37202;BME280;37799;52.390;6.136;2023-05-10T02:46:28;100802.66;;;12.62;100.00
37202;BME280;37799;52.390;6.136;2023-05-10T02:48:54;100794.28;;;12.54;100.00
37202;BME280;37799;52.390;6.136;2023-05-10T02:51:21;100798.66;;;12.53;100.00
37202;BME280;37799;52.390;6.136;2023-05-10T02:53:50;100796.09;;;12.52;100.00
37202;BME280;37799;52.390;6.136;2023-05-10T02:56:24;100795.03;;;12.57;100.00
37202;BME280;37799;52.390;6.136;2023-05-10T02:58:51;100793.50;;;12.52;100.00
37202;BME280;37799;52.390;6.136;2023-05-10T03:01:16;100796.09;;;12.52;100.00
37202;BME280;37799;52.390;6.136;2023-05-10T03:03:42;100800.88;;;12.64;100.00
37202;BME280;37799;52.390;6.136;2023-05-10T03:06:07;100802.22;;;12.74;100.00
37202;BME280;37799;52.390;6.136;2023-05-10T03:08:32;100802.56;;;12.65;100.00
37202;BME280;37799;52.390;6.136;2023-05-10T03:11:16;100802.50;;;12.66;100.00
37202;BME280;37799;52.390;6.136;2023-05-10T03:13:52;100803.41;;;12.65;100.00
37202;BME280;37799;52.390;6.136;2023-05-10T03:16:29;100798.22;;;12.65;100.00
37202;BME280;37799;52.390;6.136;2023-05-10T03:21:37;100804.16;;;12.69;100.00
37202;BME280;37799;52.390;6.136;2023-05-10T03:24:07;100803.31;;;12.68;100.00
37202;BME280;37799;52.390;6.136;2023-05-10T03:26:34;100796.28;;;12.70;100.00
37202;BME280;37799;52.390;6.136;2023-05-10T03:29:00;100809.03;;;12.78;100.00
37202;BME280;37799;52.390;6.136;2023-05-10T03:31:26;100800.53;;;12.73;100.00
37202;BME280;37799;52.390;6.136;2023-05-10T03:33:52;100807.53;;;12.71;100.00
37202;BME280;37799;52.390;6.136;2023-05-10T03:36:18;100805.72;;;12.73;100.00
37202;BME280;37799;52.390;6.136;2023-05-10T03:38:43;100807.47;;;12.73;100.00
37202;BME280;37799;52.390;6.136;2023-05-10T03:41:09;100815.38;;;12.94;100.00
37202;BME280;37799;52.390;6.136;2023-05-10T03:43:34;100819.34;;;13.05;100.00
37202;BME280;37799;52.390;6.136;2023-05-10T03:46:03;100810.16;;;12.94;100.00
37202;BME280;37799;52.390;6.136;2023-05-10T03:48:29;100812.34;;;12.82;100.00
37202;BME280;37799;52.390;6.136;2023-05-10T03:50:55;100814.59;;;12.67;100.00
37202;BME280;37799;52.390;6.136;2023-05-10T03:53:20;100813.69;;;12.68;100.00
37202;BME280;37799;52.390;6.136;2023-05-10T03:55:46;100820.59;;;12.69;100.00
37202;BME280;37799;52.390;6.136;2023-05-10T03:58:11;100823.13;;;12.71;100.00
37202;BME280;37799;52.390;6.136;2023-05-10T04:00:37;100823.06;;;12.73;100.00
37202;BME280;37799;52.390;6.136;2023-05-10T04:03:02;100825.72;;;12.96;100.00
37202;BME280;37799;52.390;6.136;2023-05-10T04:05:29;100824.75;;;12.98;100.00
37202;BME280;37799;52.390;6.136;2023-05-10T04:07:54;100821.00;;;12.82;100.00
37202;BME280;37799;52.390;6.136;2023-05-10T04:10:20;100831.16;;;12.88;100.00
37202;BME280;37799;52.390;6.136;2023-05-10T04:12:46;100825.16;;;13.11;100.00
37202;BME280;37799;52.390;6.136;2023-05-10T04:15:11;100832.53;;;12.98;100.00
37202;BME280;37799;52.390;6.136;2023-05-10T04:17:36;100830.97;;;12.94;100.00
37202;BME280;37799;52.390;6.136;2023-05-10T04:20:03;100835.69;;;12.83;100.00
37202;BME280;37799;52.390;6.136;2023-05-10T04:22:28;100833.56;;;12.94;100.00
37202;BME280;37799;52.390;6.136;2023-05-10T04:24:54;100839.34;;;13.03;100.00
37202;BME280;37799;52.390;6.136;2023-05-10T04:27:19;100835.13;;;12.98;100.00
37202;BME280;37799;52.390;6.136;2023-05-10T04:29:44;100839.28;;;13.29;100.00
37202;BME280;37799;52.390;6.136;2023-05-10T04:32:10;100835.94;;;13.00;100.00
37202;BME280;37799;52.390;6.136;2023-05-10T04:34:36;100844.31;;;13.09;100.00
37202;BME280;37799;52.390;6.136;2023-05-10T04:37:01;100846.13;;;12.82;100.00
37202;BME280;37799;52.390;6.136;2023-05-10T04:39:26;100844.13;;;12.90;100.00
37202;BME280;37799;52.390;6.136;2023-05-10T04:41:52;100847.81;;;13.08;100.00
37202;BME280;37799;52.390;6.136;2023-05-10T04:44:17;100848.25;;;12.95;100.00
37202;BME280;37799;52.390;6.136;2023-05-10T04:46:42;100838.75;;;12.94;100.00
37202;BME280;37799;52.390;6.136;2023-05-10T04:49:08;100844.03;;;12.93;100.00
37202;BME280;37799;52.390;6.136;2023-05-10T04:51:33;100843.97;;;13.18;100.00
37202;BME280;37799;52.390;6.136;2023-05-10T04:53:58;100844.97;;;12.90;100.00
37202;BME280;37799;52.390;6.136;2023-05-10T04:56:24;100855.78;;;13.03;100.00
37202;BME280;37799;52.390;6.136;2023-05-10T04:58:49;100855.16;;;12.96;100.00
37202;BME280;37799;52.390;6.136;2023-05-10T05:01:14;100861.00;;;13.02;100.00
37202;BME280;37799;52.390;6.136;2023-05-10T05:03:40;100861.25;;;12.95;100.00
37202;BME280;37799;52.390;6.136;2023-05-10T05:06:05;100860.09;;;13.04;100.00
37202;BME280;37799;52.390;6.136;2023-05-10T05:08:31;100861.13;;;12.98;100.00
37202;BME280;37799;52.390;6.136;2023-05-10T05:10:56;100869.22;;;13.14;100.00
37202;BME280;37799;52.390;6.136;2023-05-10T05:13:21;100868.66;;;13.06;100.00
37202;BME280;37799;52.390;6.136;2023-05-10T05:15:47;100872.22;;;13.04;100.00
37202;BME280;37799;52.390;6.136;2023-05-10T05:18:12;100872.13;;;13.07;100.00
37202;BME280;37799;52.390;6.136;2023-05-10T05:20:37;100871.88;;;13.13;100.00
37202;BME280;37799;52.390;6.136;2023-05-10T05:23:03;100880.19;;;13.24;100.00
37202;BME280;37799;52.390;6.136;2023-05-10T05:25:28;100883.56;;;13.26;100.00
37202;BME280;37799;52.390;6.136;2023-05-10T05:27:54;100886.75;;;13.09;100.00
37202;BME280;37799;52.390;6.136;2023-05-10T05:30:19;100885.91;;;13.09;100.00
37202;BME280;37799;52.390;6.136;2023-05-10T05:32:44;100893.03;;;13.28;100.00
37202;BME280;37799;52.390;6.136;2023-05-10T05:35:12;100887.66;;;13.33;100.00
37202;BME280;37799;52.390;6.136;2023-05-10T05:37:37;100888.31;;;13.38;100.00
37202;BME280;37799;52.390;6.136;2023-05-10T05:40:03;100893.53;;;13.38;100.00
37202;BME280;37799;52.390;6.136;2023-05-10T05:42:28;100890.25;;;13.33;100.00
37202;BME280;37799;52.390;6.136;2023-05-10T05:44:54;100892.41;;;13.22;100.00
37202;BME280;37799;52.390;6.136;2023-05-10T05:47:19;100894.91;;;13.48;100.00
37202;BME280;37799;52.390;6.136;2023-05-10T05:49:44;100897.69;;;13.44;100.00
37202;BME280;37799;52.390;6.136;2023-05-10T05:52:12;100899.34;;;13.21;100.00
37202;BME280;37799;52.390;6.136;2023-05-10T05:54:38;100896.00;;;13.18;100.00
37202;BME280;37799;52.390;6.136;2023-05-10T05:57:04;100912.97;;;13.28;100.00
37202;BME280;37799;52.390;6.136;2023-05-10T05:59:29;100906.72;;;13.34;100.00
37202;BME280;37799;52.390;6.136;2023-05-10T06:01:54;100914.81;;;13.73;100.00
37202;BME280;37799;52.390;6.136;2023-05-10T06:04:20;100910.25;;;13.78;100.00
37202;BME280;37799;52.390;6.136;2023-05-10T06:06:45;100905.50;;;13.66;100.00
37202;BME280;37799;52.390;6.136;2023-05-10T06:09:12;100913.22;;;13.69;100.00
37202;BME280;37799;52.390;6.136;2023-05-10T06:11:37;100912.47;;;13.65;100.00
37202;BME280;37799;52.390;6.136;2023-05-10T06:14:04;100913.78;;;13.53;100.00
37202;BME280;37799;52.390;6.136;2023-05-10T06:16:30;100922.59;;;13.49;100.00
37202;BME280;37799;52.390;6.136;2023-05-10T06:18:55;100916.69;;;13.46;100.00
37202;BME280;37799;52.390;6.136;2023-05-10T06:21:21;100926.78;;;13.53;100.00
37202;BME280;37799;52.390;6.136;2023-05-10T06:23:46;100922.94;;;13.64;100.00
37202;BME280;37799;52.390;6.136;2023-05-10T06:26:12;100924.41;;;13.71;100.00
37202;BME280;37799;52.390;6.136;2023-05-10T06:28:39;100921.81;;;13.47;100.00
37202;BME280;37799;52.390;6.136;2023-05-10T06:31:05;100926.56;;;13.36;100.00
37202;BME280;37799;52.390;6.136;2023-05-10T06:33:31;100918.25;;;13.50;100.00
37202;BME280;37799;52.390;6.136;2023-05-10T06:35:57;100921.03;;;13.45;100.00
37202;BME280;37799;52.390;6.136;2023-05-10T06:38:22;100924.53;;;13.44;100.00
37202;BME280;37799;52.390;6.136;2023-05-10T06:40:48;100924.19;;;13.53;100.00
37202;BME280;37799;52.390;6.136;2023-05-10T06:43:13;100927.47;;;13.82;100.00
37202;BME280;37799;52.390;6.136;2023-05-10T06:45:39;100932.69;;;13.58;100.00
37202;BME280;37799;52.390;6.136;2023-05-10T06:48:04;100940.63;;;13.54;100.00
37202;BME280;37799;52.390;6.136;2023-05-10T06:50:30;100938.09;;;13.52;100.00
37202;BME280;37799;52.390;6.136;2023-05-10T06:52:55;100942.56;;;13.49;100.00
37202;BME280;37799;52.390;6.136;2023-05-10T06:55:21;100942.56;;;13.49;100.00
37202;BME280;37799;52.390;6.136;2023-05-10T06:57:46;100941.91;;;13.67;100.00
37202;BME280;37799;52.390;6.136;2023-05-10T07:00:13;100954.81;;;13.70;100.00
37202;BME280;37799;52.390;6.136;2023-05-10T07:02:39;100952.75;;;13.78;100.00
37202;BME280;37799;52.390;6.136;2023-05-10T07:05:04;100947.47;;;13.80;100.00
37202;BME280;37799;52.390;6.136;2023-05-10T07:07:30;100957.88;;;13.80;100.00
37202;BME280;37799;52.390;6.136;2023-05-10T07:09:55;100953.81;;;13.96;100.00
37202;BME280;37799;52.390;6.136;2023-05-10T07:12:22;100957.69;;;13.86;100.00
37202;BME280;37799;52.390;6.136;2023-05-10T07:14:47;100959.47;;;14.07;100.00
37202;BME280;37799;52.390;6.136;2023-05-10T07:17:13;100962.56;;;13.95;100.00
37202;BME280;37799;52.390;6.136;2023-05-10T07:19:38;100970.13;;;14.01;100.00
37202;BME280;37799;52.390;6.136;2023-05-10T07:22:03;100962.75;;;13.89;100.00
37202;BME280;37799;52.390;6.136;2023-05-10T07:24:29;100963.88;;;14.05;100.00
37202;BME280;37799;52.390;6.136;2023-05-10T07:26:56;100967.88;;;14.14;100.00
37202;BME280;37799;52.390;6.136;2023-05-10T07:29:21;100973.59;;;14.24;100.00
37202;BME280;37799;52.390;6.136;2023-05-10T07:31:46;100976.38;;;14.41;100.00
37202;BME280;37799;52.390;6.136;2023-05-10T07:34:12;100977.63;;;14.54;100.00
37202;BME280;37799;52.390;6.136;2023-05-10T07:36:37;100976.91;;;14.72;100.00
37202;BME280;37799;52.390;6.136;2023-05-10T07:39:02;100974.66;;;14.84;100.00
37202;BME280;37799;52.390;6.136;2023-05-10T07:41:28;100987.44;;;15.12;100.00
37202;BME280;37799;52.390;6.136;2023-05-10T07:43:53;100988.38;;;15.09;100.00
37202;BME280;37799;52.390;6.136;2023-05-10T07:46:19;100993.22;;;14.98;100.00
37202;BME280;37799;52.390;6.136;2023-05-10T07:48:45;100996.94;;;15.13;100.00
37202;BME280;37799;52.390;6.136;2023-05-10T07:51:10;100997.25;;;15.05;100.00
37202;BME280;37799;52.390;6.136;2023-05-10T07:53:36;100994.91;;;14.99;100.00
37202;BME280;37799;52.390;6.136;2023-05-10T07:58:45;100990.03;;;15.12;100.00
37202;BME280;37799;52.390;6.136;2023-05-10T08:01:10;100997.00;;;15.31;100.00
37202;BME280;37799;52.390;6.136;2023-05-10T08:03:35;100993.03;;;15.63;100.00
37202;BME280;37799;52.390;6.136;2023-05-10T08:06:01;101008.31;;;15.91;100.00
37202;BME280;37799;52.390;6.136;2023-05-10T08:08:26;101006.47;;;15.93;100.00
37202;BME280;37799;52.390;6.136;2023-05-10T08:10:51;101010.97;;;16.09;100.00
37202;BME280;37799;52.390;6.136;2023-05-10T08:13:17;101015.34;;;16.27;100.00
37202;BME280;37799;52.390;6.136;2023-05-10T08:15:42;101013.94;;;16.39;100.00
37202;BME280;37799;52.390;6.136;2023-05-10T08:18:07;101019.69;;;16.28;100.00
37202;BME280;37799;52.390;6.136;2023-05-10T08:20:32;101017.50;;;16.19;100.00
37202;BME280;37799;52.390;6.136;2023-05-10T08:22:58;101021.78;;;16.20;100.00
37202;BME280;37799;52.390;6.136;2023-05-10T08:25:23;101019.19;;;16.20;100.00
37202;BME280;37799;52.390;6.136;2023-05-10T08:27:49;101020.72;;;16.05;100.00
37202;BME280;37799;52.390;6.136;2023-05-10T08:30:14;101025.25;;;16.02;100.00
37202;BME280;37799;52.390;6.136;2023-05-10T08:32:40;101026.09;;;16.02;100.00
37202;BME280;37799;52.390;6.136;2023-05-10T08:35:05;101028.13;;;15.96;100.00
37202;BME280;37799;52.390;6.136;2023-05-10T08:37:31;101034.41;;;15.91;100.00
37202;BME280;37799;52.390;6.136;2023-05-10T08:39:57;101032.84;;;15.87;100.00
37202;BME280;37799;52.390;6.136;2023-05-10T08:42:25;101029.94;;;15.75;100.00
37202;BME280;37799;52.390;6.136;2023-05-10T08:44:54;101031.66;;;15.95;100.00
37202;BME280;37799;52.390;6.136;2023-05-10T08:47:21;101029.88;;;15.76;100.00
37202;BME280;37799;52.390;6.136;2023-05-10T08:49:47;101032.81;;;15.69;100.00
37202;BME280;37799;52.390;6.136;2023-05-10T08:52:17;101033.94;;;15.63;100.00
37202;BME280;37799;52.390;6.136;2023-05-10T08:54:42;101040.19;;;15.79;100.00
37202;BME280;37799;52.390;6.136;2023-05-10T08:57:10;101043.16;;;15.90;100.00
37202;BME280;37799;52.390;6.136;2023-05-10T08:59:36;101048.47;;;15.69;100.00
37202;BME280;37799;52.390;6.136;2023-05-10T09:02:04;101047.88;;;15.62;100.00
37202;BME280;37799;52.390;6.136;2023-05-10T09:04:30;101053.63;;;15.50;100.00
37202;BME280;37799;52.390;6.136;2023-05-10T09:06:56;101058.44;;;15.59;100.00
37202;BME280;37799;52.390;6.136;2023-05-10T09:09:23;101061.44;;;15.29;100.00
37202;BME280;37799;52.390;6.136;2023-05-10T09:11:49;101062.59;;;15.02;100.00
37202;BME280;37799;52.390;6.136;2023-05-10T09:14:14;101062.22;;;15.11;100.00
37202;BME280;37799;52.390;6.136;2023-05-10T09:16:40;101068.38;;;15.09;100.00
37202;BME280;37799;52.390;6.136;2023-05-10T09:19:06;101068.88;;;15.18;100.00
37202;BME280;37799;52.390;6.136;2023-05-10T09:21:35;101064.84;;;15.31;100.00
37202;BME280;37799;52.390;6.136;2023-05-10T09:24:06;101067.72;;;15.46;100.00
37202;BME280;37799;52.390;6.136;2023-05-10T09:26:33;101072.69;;;15.72;100.00
37202;BME280;37799;52.390;6.136;2023-05-10T09:29:02;101070.72;;;15.57;100.00
37202;BME280;37799;52.390;6.136;2023-05-10T09:31:52;101076.75;;;15.79;100.00
37202;BME280;37799;52.390;6.136;2023-05-10T09:34:28;101077.50;;;15.81;100.00
37202;BME280;37799;52.390;6.136;2023-05-10T09:37:02;101088.47;;;15.89;100.00
37202;BME280;37799;52.390;6.136;2023-05-10T09:39:36;101087.28;;;15.97;100.00
37202;BME280;37799;52.390;6.136;2023-05-10T09:42:07;101090.03;;;15.93;100.00
37202;BME280;37799;52.390;6.136;2023-05-10T09:44:39;101093.56;;;15.92;100.00
37202;BME280;37799;52.390;6.136;2023-05-10T09:47:06;101098.81;;;16.11;100.00
37202;BME280;37799;52.390;6.136;2023-05-10T09:49:34;101095.25;;;15.93;100.00
37202;BME280;37799;52.390;6.136;2023-05-10T09:52:03;101101.13;;;15.99;100.00
37202;BME280;37799;52.390;6.136;2023-05-10T09:54:29;101098.41;;;16.02;100.00
37202;BME280;37799;52.390;6.136;2023-05-10T09:56:55;101102.63;;;16.23;100.00
37202;BME280;37799;52.390;6.136;2023-05-10T09:59:20;101109.41;;;16.65;100.00
37202;BME280;37799;52.390;6.136;2023-05-10T10:01:53;101111.34;;;16.42;100.00
37202;BME280;37799;52.390;6.136;2023-05-10T10:04:20;101104.50;;;16.59;100.00
37202;BME280;37799;52.390;6.136;2023-05-10T10:06:46;101102.94;;;16.73;100.00
37202;BME280;37799;52.390;6.136;2023-05-10T10:09:22;101107.38;;;16.90;100.00
37202;BME280;37799;52.390;6.136;2023-05-10T10:11:48;101112.34;;;16.96;100.00
37202;BME280;37799;52.390;6.136;2023-05-10T10:14:14;101112.69;;;17.25;100.00
37202;BME280;37799;52.390;6.136;2023-05-10T10:16:39;101117.59;;;17.65;100.00
37202;BME280;37799;52.390;6.136;2023-05-10T10:19:06;101124.13;;;18.09;100.00
37202;BME280;37799;52.390;6.136;2023-05-10T10:21:32;101119.78;;;17.92;100.00
37202;BME280;37799;52.390;6.136;2023-05-10T10:23:57;101122.38;;;17.92;100.00
37202;BME280;37799;52.390;6.136;2023-05-10T10:26:23;101123.19;;;17.77;100.00
37202;BME280;37799;52.390;6.136;2023-05-10T10:31:40;101122.06;;;17.12;100.00
37202;BME280;37799;52.390;6.136;2023-05-10T10:34:10;101125.66;;;17.09;100.00
37202;BME280;37799;52.390;6.136;2023-05-10T10:36:46;101123.84;;;16.92;100.00
37202;BME280;37799;52.390;6.136;2023-05-10T10:39:12;101132.75;;;16.88;100.00
37202;BME280;37799;52.390;6.136;2023-05-10T10:41:40;101116.81;;;17.12;100.00
37202;BME280;37799;52.390;6.136;2023-05-10T10:54:59;101131.16;;;16.67;100.00
37202;BME280;37799;52.390;6.136;2023-05-10T10:57:26;101125.94;;;16.65;100.00
37202;BME280;37799;52.390;6.136;2023-05-10T10:59:53;101134.41;;;16.72;100.00
37202;BME280;37799;52.390;6.136;2023-05-10T11:02:47;101132.97;;;16.46;100.00
37202;BME280;37799;52.390;6.136;2023-05-10T11:07:55;101136.91;;;16.17;100.00
37202;BME280;37799;52.390;6.136;2023-05-10T11:10:22;101137.22;;;16.09;100.00
37202;BME280;37799;52.390;6.136;2023-05-10T11:13:42;101140.53;;;16.13;100.00
37202;BME280;37799;52.390;6.136;2023-05-10T11:16:14;101139.63;;;16.14;100.00
37202;BME280;37799;52.390;6.136;2023-05-10T11:18:40;101138.19;;;16.46;100.00
37202;BME280;37799;52.390;6.136;2023-05-10T11:21:08;101146.03;;;16.46;100.00
37202;BME280;37799;52.390;6.136;2023-05-10T11:26:10;101145.06;;;16.86;100.00
37202;BME280;37799;52.390;6.136;2023-05-10T11:28:47;101149.22;;;16.90;100.00
37202;BME280;37799;52.390;6.136;2023-05-10T11:31:17;101150.31;;;16.86;100.00
37202;BME280;37799;52.390;6.136;2023-05-10T11:36:14;101155.38;;;17.08;100.00
37202;BME280;37799;52.390;6.136;2023-05-10T11:38:40;101167.03;;;17.20;100.00
37202;BME280;37799;52.390;6.136;2023-05-10T11:41:08;101172.28;;;17.37;100.00
37202;BME280;37799;52.390;6.136;2023-05-10T11:43:34;101158.34;;;17.54;100.00
37202;BME280;37799;52.390;6.136;2023-05-10T11:46:00;101164.44;;;17.54;100.00
37202;BME280;37799;52.390;6.136;2023-05-10T11:48:25;101162.88;;;17.33;100.00
37202;BME280;37799;52.390;6.136;2023-05-10T11:50:51;101170.66;;;17.34;100.00
37202;BME280;37799;52.390;6.136;2023-05-10T11:53:19;101166.44;;;17.49;100.00
37202;BME280;37799;52.390;6.136;2023-05-10T11:55:45;101168.47;;;17.25;100.00
37202;BME280;37799;52.390;6.136;2023-05-10T11:58:10;101170.44;;;17.39;100.00
37202;BME280;37799;52.390;6.136;2023-05-10T12:00:36;101171.66;;;17.32;100.00
37202;BME280;37799;52.390;6.136;2023-05-10T12:03:02;101164.19;;;17.42;100.00
37202;BME280;37799;52.390;6.136;2023-05-10T12:05:31;101178.19;;;17.04;100.00
37202;BME280;37799;52.390;6.136;2023-05-10T12:08:11;101176.00;;;17.14;100.00
37202;BME280;37799;52.390;6.136;2023-05-10T12:10:36;101173.28;;;16.98;100.00
37202;BME280;37799;52.390;6.136;2023-05-10T12:13:02;101172.22;;;16.84;100.00
37202;BME280;37799;52.390;6.136;2023-05-10T12:15:29;101168.53;;;16.88;100.00
37202;BME280;37799;52.390;6.136;2023-05-10T12:17:56;101169.13;;;16.94;100.00
37202;BME280;37799;52.390;6.136;2023-05-10T12:20:23;101175.13;;;16.96;100.00
37202;BME280;37799;52.390;6.136;2023-05-10T12:22:51;101186.50;;;16.95;100.00
37202;BME280;37799;52.390;6.136;2023-05-10T12:25:21;101192.97;;;17.05;100.00
37202;BME280;37799;52.390;6.136;2023-05-10T12:27:52;101187.88;;;17.21;100.00
37202;BME280;37799;52.390;6.136;2023-05-10T12:30:35;101184.38;;;17.39;100.00
37202;BME280;37799;52.390;6.136;2023-05-10T12:33:02;101196.13;;;18.02;100.00
37202;BME280;37799;52.390;6.136;2023-05-10T12:35:32;101192.19;;;17.93;100.00
37202;BME280;37799;52.390;6.136;2023-05-10T12:37:58;101194.16;;;18.22;100.00
37202;BME280;37799;52.390;6.136;2023-05-10T12:40:24;101190.63;;;18.23;100.00
37202;BME280;37799;52.390;6.136;2023-05-10T12:42:49;101188.25;;;18.19;100.00
37202;BME280;37799;52.390;6.136;2023-05-10T12:45:17;101193.69;;;18.32;100.00
37202;BME280;37799;52.390;6.136;2023-05-10T12:47:43;101197.91;;;18.51;100.00
37202;BME280;37799;52.390;6.136;2023-05-10T12:50:09;101199.91;;;18.79;100.00
37202;BME280;37799;52.390;6.136;2023-05-10T12:52:34;101198.63;;;18.38;100.00
37202;BME280;37799;52.390;6.136;2023-05-10T12:55:00;101190.47;;;18.26;100.00
37202;BME280;37799;52.390;6.136;2023-05-10T12:57:26;101200.97;;;18.26;100.00
37202;BME280;37799;52.390;6.136;2023-05-10T12:59:51;101202.38;;;17.82;100.00
37202;BME280;37799;52.390;6.136;2023-05-10T13:02:17;101201.38;;;17.84;100.00
37202;BME280;37799;52.390;6.136;2023-05-10T13:04:46;101210.53;;;17.76;100.00
37202;BME280;37799;52.390;6.136;2023-05-10T13:07:12;101206.84;;;17.80;100.00
37202;BME280;37799;52.390;6.136;2023-05-10T13:09:37;101204.00;;;17.84;100.00
37202;BME280;37799;52.390;6.136;2023-05-10T13:12:02;101207.84;;;17.94;100.00
37202;BME280;37799;52.390;6.136;2023-05-10T13:14:29;101206.84;;;17.80;100.00
37202;BME280;37799;52.390;6.136;2023-05-10T13:16:55;101209.09;;;17.87;100.00
37202;BME280;37799;52.390;6.136;2023-05-10T13:19:20;101205.88;;;17.63;100.00
37202;BME280;37799;52.390;6.136;2023-05-10T13:21:46;101203.47;;;17.42;100.00